Time;durP1;ratioP1;P1;durP2;ratioP2;P2;SDS_P1;SDS_P2;PMS_P1;PMS_P2;Temp;Humidity;BMP_temperature;BMP_pressure;BME280_temperature;BME280_humidity;BME280_pressure;Samples;Min_cycle;Max_cycle;Signal;HPM_P1;HPM_P2
2023/08/30 00:01:39;;;;;;;3.65;2.40;;;;;;;;;;6359569;28;20293;-72
2023/08/30 00:04:43;;;;;;;6.22;2.65;;;;;;;;;;6313134;28;20305;-70
2023/08/30 00:07:47;;;;;;;2.92;2.40;;;;;;;;;;6309826;28;20527;-70
2023/08/30 00:10:51;;;;;;;3.85;2.90;;;;;;;;;;6300429;28;20424;-70
2023/08/30 00:14:03;;;;;;;4.35;2.40;;;;;;;;;;6304925;28;20294;-70
2023/08/30 00:17:08;;;;;;;8.07;2.53;;;;;;;;;;6308727;28;20306;-70
2023/08/30 00:20:12;;;;;;;9.10;2.70;;;;;;;;;;6309519;28;20294;-69
2023/08/30 00:23:16;;;;;;;9.32;2.58;;;;;;;;;;6310164;28;20495;-70
2023/08/30 00:26:20;;;;;;;7.30;2.58;;;;;;;;;;6309508;28;20298;-70
2023/08/30 00:29:24;;;;;;;6.88;2.40;;;;;;;;;;6308445;28;20301;-70
2023/08/30 00:32:29;;;;;;;21.45;2.80;;;;;;;;;;6309388;28;20290;-70
2023/08/30 00:35:33;;;;;;;9.45;2.65;;;;;;;;;;6325119;28;20310;-71
2023/08/30 00:38:37;;;;;;;6.10;2.38;;;;;;;;;;6309392;28;20390;-71
2023/08/30 00:41:41;;;;;;;8.43;2.70;;;;;;;;;;6309077;28;20302;-70
2023/08/30 00:44:44;;;;;;;13.50;2.78;;;;;;;;;;6325139;28;20290;-70
2023/08/30 00:47:50;;;;;;;15.60;3.08;;;;;;;;;;6308218;28;20295;-70
2023/08/30 00:50:54;;;;;;;7.50;2.85;;;;;;;;;;6309149;28;20306;-70
2023/08/30 00:53:58;;;;;;;9.05;2.80;;;;;;;;;;6309437;28;20322;-70
2023/08/30 00:57:02;;;;;;;17.65;2.92;;;;;;;;;;6308841;28;20325;-70
2023/08/30 01:00:08;;;;;;;22.63;3.72;;;;;;;;;;6324608;28;20302;-70
2023/08/30 01:03:13;;;;;;;36.08;4.22;;;;;;;;;;6284094;22;20469;-67
2023/08/30 01:06:17;;;;;;;28.92;4.45;;;;;;;;;;6237751;28;20284;-69
2023/08/30 01:09:21;;;;;;;20.15;3.45;;;;;;;;;;6235722;28;20327;-70
2023/08/30 01:12:30;;;;;;;23.08;3.80;;;;;;;;;;6233473;28;20300;-70
2023/08/30 01:15:35;;;;;;;10.98;3.30;;;;;;;;;;6234193;28;20296;-71
2023/08/30 01:18:40;;;;;;;10.93;3.13;;;;;;;;;;6235294;28;20295;-69
2023/08/30 01:21:51;;;;;;;10.23;2.90;;;;;;;;;;6234778;28;20308;-69
2023/08/30 01:25:02;;;;;;;3.28;2.80;;;;;;;;;;6217375;28;20292;-69
2023/08/30 01:28:08;;;;;;;8.18;2.65;;;;;;;;;;6234122;28;20297;-69
2023/08/30 01:31:13;;;;;;;9.30;2.97;;;;;;;;;;6234829;28;20296;-69
2023/08/30 01:34:17;;;;;;;6.55;2.45;;;;;;;;;;6235159;28;20292;-69
2023/08/30 01:37:22;;;;;;;2.80;2.70;;;;;;;;;;6231063;28;20307;-69
2023/08/30 01:40:27;;;;;;;3.58;2.58;;;;;;;;;;6277625;28;20287;-69
2023/08/30 01:43:32;;;;;;;4.40;2.70;;;;;;;;;;6284447;28;20299;-68
2023/08/30 01:46:37;;;;;;;3.70;2.58;;;;;;;;;;6265926;28;20290;-68
2023/08/30 01:49:41;;;;;;;2.90;2.70;;;;;;;;;;6288622;28;20437;-69
2023/08/30 01:52:45;;;;;;;5.53;2.63;;;;;;;;;;6288537;28;20298;-68
2023/08/30 01:55:49;;;;;;;2.55;2.45;;;;;;;;;;6270161;28;20291;-68
2023/08/30 01:58:56;;;;;;;5.80;2.58;;;;;;;;;;6287509;28;20290;-69
2023/08/30 02:02:00;;;;;;;2.75;2.65;;;;;;;;;;6269638;28;20310;-69
2023/08/30 02:05:04;;;;;;;2.92;2.60;;;;;;;;;;6286822;28;20584;-69
2023/08/30 02:08:15;;;;;;;3.00;2.88;;;;;;;;;;6286583;28;20267;-67
2023/08/30 02:11:21;;;;;;;3.28;3.05;;;;;;;;;;6286267;28;20314;-68
2023/08/30 02:14:27;;;;;;;3.55;3.13;;;;;;;;;;6286896;28;20283;-69
2023/08/30 02:17:31;;;;;;;2.78;2.70;;;;;;;;;;6287705;28;20299;-68
2023/08/30 02:20:35;;;;;;;3.50;2.90;;;;;;;;;;6287844;28;20552;-69
2023/08/30 02:23:39;;;;;;;6.00;2.95;;;;;;;;;;6286311;28;20311;-69
2023/08/30 02:26:43;;;;;;;3.80;3.03;;;;;;;;;;6287365;28;20571;-69
2023/08/30 02:29:48;;;;;;;6.35;3.65;;;;;;;;;;6269678;28;20595;-68
2023/08/30 02:32:52;;;;;;;2.83;2.63;;;;;;;;;;6269697;28;20333;-70
2023/08/30 02:35:56;;;;;;;2.90;2.80;;;;;;;;;;6287331;28;20298;-69
2023/08/30 02:39:00;;;;;;;2.90;2.70;;;;;;;;;;6288113;28;20299;-70
2023/08/30 02:42:04;;;;;;;3.50;3.20;;;;;;;;;;6287992;28;20299;-68
2023/08/30 02:45:10;;;;;;;3.67;3.38;;;;;;;;;;6287347;28;20303;-68
2023/08/30 02:48:14;;;;;;;3.55;3.33;;;;;;;;;;6287620;28;20287;-69
2023/08/30 02:51:18;;;;;;;5.43;3.20;;;;;;;;;;6268912;28;20286;-68
2023/08/30 02:54:22;;;;;;;6.32;3.38;;;;;;;;;;6287644;28;20475;-69
2023/08/30 02:57:26;;;;;;;3.65;3.38;;;;;;;;;;6287191;28;20306;-68
2023/08/30 03:00:34;;;;;;;4.20;3.13;;;;;;;;;;6267937;28;20303;-69
2023/08/30 03:03:38;;;;;;;4.53;3.00;;;;;;;;;;6258121;28;20295;-69
2023/08/30 03:06:43;;;;;;;2.85;2.60;;;;;;;;;;6260944;28;20604;-69
2023/08/30 03:09:47;;;;;;;4.38;3.13;;;;;;;;;;6260811;28;20339;-68
2023/08/30 03:12:52;;;;;;;2.95;2.83;;;;;;;;;;6255450;28;20305;-68
2023/08/30 03:15:57;;;;;;;3.58;3.22;;;;;;;;;;6236122;28;20324;-68
2023/08/30 03:19:01;;;;;;;5.43;3.30;;;;;;;;;;6255161;28;20468;-68
2023/08/30 03:22:06;;;;;;;2.97;2.78;;;;;;;;;;6277133;28;20620;-68
2023/08/30 03:25:10;;;;;;;3.30;2.97;;;;;;;;;;6261735;28;20383;-68
2023/08/30 03:28:15;;;;;;;4.90;3.50;;;;;;;;;;6262973;28;20296;-68
2023/08/30 03:31:22;;;;;;;4.95;3.28;;;;;;;;;;6277133;28;20299;-68
2023/08/30 03:34:26;;;;;;;3.20;3.10;;;;;;;;;;6260047;28;20295;-68
2023/08/30 03:37:31;;;;;;;3.75;3.00;;;;;;;;;;6262936;28;20292;-68
2023/08/30 03:40:34;;;;;;;3.40;3.15;;;;;;;;;;6236696;28;20288;-69
2023/08/30 03:43:38;;;;;;;6.82;3.30;;;;;;;;;;6252111;28;20414;-68
2023/08/30 03:46:44;;;;;;;3.28;3.08;;;;;;;;;;6252742;28;20306;-68
2023/08/30 03:49:48;;;;;;;5.18;3.40;;;;;;;;;;6251776;28;20300;-68
2023/08/30 03:52:52;;;;;;;3.72;3.38;;;;;;;;;;6251629;28;20304;-68
2023/08/30 03:55:56;;;;;;;3.88;3.38;;;;;;;;;;6252050;28;20332;-69
2023/08/30 03:58:59;;;;;;;3.50;3.40;;;;;;;;;;6235049;28;20292;-68
2023/08/30 04:02:05;;;;;;;3.90;3.20;;;;;;;;;;6255529;28;20585;-69
2023/08/30 04:05:09;;;;;;;8.25;3.53;;;;;;;;;;6242875;28;20295;-68
2023/08/30 04:08:14;;;;;;;5.50;4.00;;;;;;;;;;6261724;28;20229;-69
2023/08/30 04:11:18;;;;;;;3.42;3.33;;;;;;;;;;6261203;28;20299;-68
2023/08/30 04:14:22;;;;;;;4.93;4.20;;;;;;;;;;6260345;28;20295;-68
2023/08/30 04:17:29;;;;;;;4.05;3.63;;;;;;;;;;6261179;28;20300;-69
2023/08/30 04:20:33;;;;;;;3.97;3.67;;;;;;;;;;6260379;28;20291;-68
2023/08/30 04:23:36;;;;;;;4.07;3.63;;;;;;;;;;6260431;28;20303;-69
2023/08/30 04:26:41;;;;;;;4.07;3.67;;;;;;;;;;6259528;28;20295;-68
2023/08/30 04:29:45;;;;;;;3.95;3.40;;;;;;;;;;6260376;28;20299;-68
2023/08/30 04:32:50;;;;;;;3.25;3.13;;;;;;;;;;6260785;28;20299;-68
2023/08/30 04:35:55;;;;;;;6.20;3.10;;;;;;;;;;6242648;28;20471;-68
2023/08/30 04:38:59;;;;;;;4.32;3.22;;;;;;;;;;6242089;28;20296;-69
2023/08/30 04:42:06;;;;;;;2.97;2.90;;;;;;;;;;6242663;28;20292;-68
2023/08/30 04:45:11;;;;;;;2.83;2.72;;;;;;;;;;6242198;28;20291;-68
2023/08/30 04:48:16;;;;;;;3.47;3.13;;;;;;;;;;6243058;28;20291;-68
2023/08/30 04:51:20;;;;;;;2.85;2.75;;;;;;;;;;6258210;28;20307;-68
2023/08/30 04:54:24;;;;;;;3.95;3.13;;;;;;;;;;6242204;28;20343;-68
2023/08/30 04:57:28;;;;;;;4.00;3.42;;;;;;;;;;6260486;28;20303;-68
2023/08/30 05:00:32;;;;;;;4.05;3.22;;;;;;;;;;6242128;28;20303;-69
2023/08/30 05:03:37;;;;;;;3.22;3.10;;;;;;;;;;6259896;28;20308;-70
2023/08/30 05:06:44;;;;;;;3.60;3.30;;;;;;;;;;6275930;28;20303;-69
2023/08/30 05:09:48;;;;;;;3.58;3.25;;;;;;;;;;6260435;28;20295;-68
2023/08/30 05:12:52;;;;;;;3.67;3.38;;;;;;;;;;6316064;28;20306;-68
2023/08/30 05:15:56;;;;;;;5.25;3.60;;;;;;;;;;6284777;28;20445;-70
2023/08/30 05:19:02;;;;;;;5.05;3.55;;;;;;;;;;6290390;28;20295;-68
2023/08/30 05:22:06;;;;;;;5.10;3.50;;;;;;;;;;6277129;28;20462;-68
2023/08/30 05:25:11;;;;;;;4.70;3.70;;;;;;;;;;6263631;28;20295;-68
2023/08/30 05:28:15;;;;;;;3.65;3.45;;;;;;;;;;6265342;28;20444;-68
2023/08/30 05:31:19;;;;;;;4.00;3.70;;;;;;;;;;6264086;28;20304;-68
2023/08/30 05:34:40;;;;;;;3.90;3.70;;;;;;;;;;6280261;28;20300;-69
2023/08/30 05:37:44;;;;;;;4.45;3.70;;;;;;;;;;6243764;28;20305;-69
2023/08/30 05:41:06;;;;;;;5.20;3.72;;;;;;;;;;6238892;28;20296;-70
2023/08/30 05:44:10;;;;;;;3.88;3.67;;;;;;;;;;6238286;28;20292;-69
2023/08/30 05:47:15;;;;;;;4.60;3.40;;;;;;;;;;6239957;28;20268;-69
2023/08/30 05:50:20;;;;;;;3.70;3.40;;;;;;;;;;6262768;28;20303;-68
2023/08/30 05:53:24;;;;;;;3.15;3.00;;;;;;;;;;6263300;28;20383;-68
2023/08/30 05:56:30;;;;;;;5.18;3.38;;;;;;;;;;6264466;28;20299;-69
2023/08/30 05:59:34;;;;;;;5.68;3.38;;;;;;;;;;6261956;28;20521;-69
2023/08/30 06:02:38;;;;;;;3.72;3.25;;;;;;;;;;6264228;28;20295;-69
2023/08/30 06:05:44;;;;;;;3.88;3.53;;;;;;;;;;6263856;28;20299;-68
2023/08/30 06:08:47;;;;;;;3.85;2.80;;;;;;;;;;6263854;28;20283;-68
2023/08/30 06:11:51;;;;;;;3.40;3.20;;;;;;;;;;6272452;28;20315;-69
2023/08/30 06:14:55;;;;;;;4.18;2.90;;;;;;;;;;6238922;28;20350;-68
2023/08/30 06:17:59;;;;;;;4.22;3.17;;;;;;;;;;6239644;28;20292;-68
2023/08/30 06:21:05;;;;;;;3.10;2.90;;;;;;;;;;6238947;28;20288;-69
2023/08/30 06:24:08;;;;;;;3.13;2.80;;;;;;;;;;6238510;28;20297;-70
2023/08/30 06:27:12;;;;;;;3.00;2.80;;;;;;;;;;6239252;28;20288;-67
2023/08/30 06:30:16;;;;;;;2.97;2.80;;;;;;;;;;6238776;28;20584;-69
2023/08/30 06:33:20;;;;;;;2.80;2.70;;;;;;;;;;6254238;28;20291;-68
2023/08/30 06:36:25;;;;;;;3.35;3.13;;;;;;;;;;6253451;28;20292;-68
2023/08/30 06:39:33;;;;;;;3.17;2.83;;;;;;;;;;6238319;28;20304;-69
2023/08/30 06:42:38;;;;;;;4.30;3.17;;;;;;;;;;6238491;28;20292;-69
2023/08/30 06:45:42;;;;;;;3.88;3.58;;;;;;;;;;6238258;28;20308;-69
2023/08/30 06:48:46;;;;;;;3.45;3.35;;;;;;;;;;6237721;28;20488;-68
2023/08/30 06:51:51;;;;;;;4.03;3.40;;;;;;;;;;6238361;28;20296;-69
2023/08/30 06:54:55;;;;;;;3.10;2.90;;;;;;;;;;6238034;28;20292;-68
2023/08/30 06:58:00;;;;;;;3.10;2.90;;;;;;;;;;6239038;28;20496;-69
2023/08/30 07:01:04;;;;;;;3.17;3.08;;;;;;;;;;6236631;28;20297;-68
2023/08/30 07:04:08;;;;;;;3.00;2.83;;;;;;;;;;6231223;28;20409;-69
2023/08/30 07:07:14;;;;;;;3.00;2.90;;;;;;;;;;6213877;28;20309;-68
2023/08/30 07:10:18;;;;;;;3.17;2.97;;;;;;;;;;6237193;28;20488;-68
2023/08/30 07:13:22;;;;;;;3.22;2.90;;;;;;;;;;6262085;28;20299;-68
2023/08/30 07:16:26;;;;;;;4.88;2.45;;;;;;;;;;6262802;28;20433;-67
2023/08/30 07:19:30;;;;;;;2.53;2.40;;;;;;;;;;6262205;28;20295;-68
2023/08/30 07:22:35;;;;;;;2.80;2.60;;;;;;;;;;6262293;28;20304;-69
2023/08/30 07:25:39;;;;;;;3.13;2.90;;;;;;;;;;6262063;28;20295;-68
2023/08/30 07:28:43;;;;;;;4.97;2.80;;;;;;;;;;6260269;28;20552;-68
2023/08/30 07:31:47;;;;;;;2.67;2.47;;;;;;;;;;6262397;28;20288;-67
2023/08/30 07:34:50;;;;;;;2.53;2.38;;;;;;;;;;6261778;28;20299;-67
2023/08/30 07:37:56;;;;;;;3.28;2.58;;;;;;;;;;6261978;28;20300;-68
2023/08/30 07:41:00;;;;;;;2.75;2.45;;;;;;;;;;6261625;28;20304;-69
2023/08/30 07:44:04;;;;;;;2.45;2.38;;;;;;;;;;6259944;28;20295;-68
2023/08/30 07:47:08;;;;;;;2.30;2.20;;;;;;;;;;6261928;28;20240;-68
2023/08/30 07:50:11;;;;;;;2.17;2.08;;;;;;;;;;6261058;28;20292;-68
2023/08/30 07:53:17;;;;;;;2.25;2.10;;;;;;;;;;6261464;28;20516;-68
2023/08/30 07:56:20;;;;;;;2.00;2.00;;;;;;;;;;6260862;28;20291;-68
2023/08/30 07:59:24;;;;;;;4.68;1.70;;;;;;;;;;6260859;28;20291;-68
2023/08/30 08:02:28;;;;;;;2.15;2.10;;;;;;;;;;6268978;28;20302;-68
2023/08/30 08:05:32;;;;;;;1.92;1.90;;;;;;;;;;6285820;28;20299;-68
2023/08/30 08:08:37;;;;;;;1.77;1.77;;;;;;;;;;6285279;28;20296;-68
2023/08/30 08:11:43;;;;;;;2.13;2.03;;;;;;;;;;6284763;28;20302;-68
2023/08/30 08:14:47;;;;;;;2.58;2.10;;;;;;;;;;6285315;28;20294;-68
2023/08/30 08:17:50;;;;;;;2.00;1.90;;;;;;;;;;6285499;28;20290;-68
2023/08/30 08:20:54;;;;;;;2.30;2.20;;;;;;;;;;6285328;28;20295;-68
2023/08/30 08:23:59;;;;;;;3.03;2.38;;;;;;;;;;6285667;28;20294;-68
2023/08/30 08:27:05;;;;;;;2.22;2.13;;;;;;;;;;6285709;28;20292;-68
2023/08/30 08:30:10;;;;;;;2.20;1.92;;;;;;;;;;6284196;28;20575;-68
2023/08/30 08:33:14;;;;;;;2.03;1.90;;;;;;;;;;6285362;28;20428;-68
2023/08/30 08:36:18;;;;;;;3.30;1.90;;;;;;;;;;6285052;28;20290;-68
2023/08/30 08:39:23;;;;;;;2.10;2.00;;;;;;;;;;6284967;28;20291;-69
2023/08/30 08:42:27;;;;;;;2.30;2.10;;;;;;;;;;6285407;28;20299;-68
2023/08/30 08:45:32;;;;;;;2.00;1.90;;;;;;;;;;6285192;28;20295;-69
2023/08/30 08:48:40;;;;;;;2.90;2.70;;;;;;;;;;6284815;28;20294;-69
2023/08/30 08:51:45;;;;;;;2.33;2.20;;;;;;;;;;6284034;28;20294;-68
2023/08/30 08:54:51;;;;;;;1.67;1.67;;;;;;;;;;6284803;28;20299;-69
2023/08/30 08:57:55;;;;;;;1.90;1.80;;;;;;;;;;6284592;28;20304;-68
2023/08/30 09:00:59;;;;;;;1.67;1.40;;;;;;;;;;6284471;28;20374;-68
2023/08/30 09:04:07;;;;;;;2.03;1.92;;;;;;;;;;6283736;28;20583;-69
2023/08/30 09:07:12;;;;;;;2.08;1.98;;;;;;;;;;6285099;28;20287;-68
2023/08/30 09:10:17;;;;;;;1.83;1.83;;;;;;;;;;6283302;28;20568;-68
2023/08/30 09:13:22;;;;;;;3.50;1.83;;;;;;;;;;6284235;28;20291;-69
2023/08/30 09:16:26;;;;;;;2.10;1.80;;;;;;;;;;6284973;28;20311;-68
2023/08/30 09:19:30;;;;;;;2.30;1.80;;;;;;;;;;6284274;28;20294;-68
2023/08/30 09:22:39;;;;;;;2.03;1.92;;;;;;;;;;6284478;28;20611;-69
2023/08/30 09:25:45;;;;;;;1.70;1.70;;;;;;;;;;6283995;28;20282;-68
2023/08/30 09:28:49;;;;;;;2.22;2.17;;;;;;;;;;6284361;28;20290;-68
2023/08/30 09:31:53;;;;;;;3.60;1.90;;;;;;;;;;6284625;28;20299;-68
2023/08/30 09:34:57;;;;;;;1.90;1.67;;;;;;;;;;6284161;28;20303;-68
2023/08/30 09:38:01;;;;;;;1.95;1.85;;;;;;;;;;6284584;28;20286;-68
2023/08/30 09:41:07;;;;;;;2.30;2.10;;;;;;;;;;6283036;28;20587;-68
2023/08/30 09:44:11;;;;;;;2.50;2.40;;;;;;;;;;6283693;28;20287;-68
2023/08/30 09:47:17;;;;;;;2.70;2.60;;;;;;;;;;6284131;28;20292;-67
2023/08/30 09:50:22;;;;;;;2.10;2.00;;;;;;;;;;6282999;28;20318;-68
2023/08/30 09:53:27;;;;;;;2.58;1.90;;;;;;;;;;6283655;28;20470;-70
2023/08/30 09:56:34;;;;;;;2.15;1.98;;;;;;;;;;6282594;28;20311;-68
2023/08/30 09:59:38;;;;;;;3.85;2.13;;;;;;;;;;6283972;28;20374;-69
2023/08/30 10:02:43;;;;;;;2.03;2.03;;;;;;;;;;6283914;28;20311;-68
2023/08/30 10:06:07;;;;;;;2.40;2.17;;;;;;;;;;6283815;28;20403;-69
2023/08/30 10:09:11;;;;;;;2.00;2.00;;;;;;;;;;6286558;28;20583;-67
2023/08/30 10:12:17;;;;;;;2.10;1.98;;;;;;;;;;6287420;28;20294;-67
2023/08/30 10:15:21;;;;;;;2.80;1.90;;;;;;;;;;6288036;28;20299;-72
2023/08/30 10:18:29;;;;;;;2.13;1.90;;;;;;;;;;6287421;28;20318;-68
2023/08/30 10:21:33;;;;;;;2.28;2.05;;;;;;;;;;6288984;28;20550;-69
2023/08/30 10:24:40;;;;;;;2.35;2.25;;;;;;;;;;6287617;28;20358;-67
2023/08/30 10:28:02;;;;;;;3.85;2.22;;;;;;;;;;6270051;28;20295;-68
2023/08/30 10:31:06;;;;;;;1.73;1.73;;;;;;;;;;6287746;28;20412;-68
2023/08/30 10:34:15;;;;;;;1.85;1.75;;;;;;;;;;6287849;28;20291;-68
2023/08/30 10:37:24;;;;;;;1.80;1.80;;;;;;;;;;6288104;28;20466;-68
2023/08/30 10:40:28;;;;;;;1.52;1.52;;;;;;;;;;6287538;28;20358;-67
2023/08/30 10:43:36;;;;;;;1.80;1.75;;;;;;;;;;6269274;28;20319;-68
2023/08/30 10:46:40;;;;;;;2.38;1.48;;;;;;;;;;6288063;28;20305;-69
2023/08/30 10:49:44;;;;;;;1.80;1.70;;;;;;;;;;6287376;28;20290;-68
2023/08/30 10:52:55;;;;;;;1.73;1.73;;;;;;;;;;6287957;28;20299;-69
2023/08/30 10:56:11;;;;;;;2.67;1.52;;;;;;;;;;6287163;28;20298;-69
2023/08/30 10:59:19;;;;;;;1.70;1.60;;;;;;;;;;6286366;28;20294;-68
2023/08/30 11:02:23;;;;;;;1.60;1.60;;;;;;;;;;6286915;28;20295;-68
2023/08/30 11:05:28;;;;;;;1.42;1.42;;;;;;;;;;6287066;28;20290;-68
2023/08/30 11:08:32;;;;;;;1.83;1.83;;;;;;;;;;6286538;28;20295;-68
2023/08/30 11:11:38;;;;;;;4.70;1.95;;;;;;;;;;6286045;28;20310;-69
2023/08/30 11:14:43;;;;;;;1.30;1.30;;;;;;;;;;6287196;28;20298;-67
2023/08/30 11:17:47;;;;;;;1.83;1.83;;;;;;;;;;6287126;28;20298;-68
2023/08/30 11:20:56;;;;;;;1.70;1.70;;;;;;;;;;6285697;28;20303;-68
2023/08/30 11:23:59;;;;;;;1.55;1.55;;;;;;;;;;6286457;28;20456;-68
2023/08/30 11:27:04;;;;;;;1.85;1.85;;;;;;;;;;6286993;28;20311;-68
2023/08/30 11:30:10;;;;;;;1.80;1.80;;;;;;;;;;6286415;28;20587;-68
2023/08/30 11:33:18;;;;;;;1.67;1.60;;;;;;;;;;6286985;28;20290;-68
2023/08/30 11:36:22;;;;;;;1.52;1.52;;;;;;;;;;6285809;28;20295;-68
2023/08/30 11:39:29;;;;;;;1.77;1.67;;;;;;;;;;6286090;28;20298;-68
2023/08/30 11:42:33;;;;;;;1.85;1.80;;;;;;;;;;6268551;28;20299;-69
2023/08/30 11:45:38;;;;;;;1.80;1.70;;;;;;;;;;6286161;28;20311;-69
2023/08/30 11:48:42;;;;;;;1.60;1.60;;;;;;;;;;6285703;28;20295;-69
2023/08/30 11:51:48;;;;;;;2.13;1.70;;;;;;;;;;6286549;28;20292;-68
2023/08/30 11:54:52;;;;;;;1.58;1.58;;;;;;;;;;6285723;28;20291;-69
2023/08/30 11:57:56;;;;;;;1.80;1.70;;;;;;;;;;6286466;28;20334;-68
2023/08/30 12:01:01;;;;;;;1.75;1.65;;;;;;;;;;6285844;28;20287;-68
2023/08/30 12:04:11;;;;;;;2.90;1.80;;;;;;;;;;6285389;28;20338;-70
2023/08/30 12:07:22;;;;;;;1.83;1.73;;;;;;;;;;6286038;28;20303;-68
2023/08/30 12:10:26;;;;;;;3.22;1.88;;;;;;;;;;6286559;28;20288;-67
2023/08/30 12:13:32;;;;;;;1.50;1.50;;;;;;;;;;6285445;28;20421;-68
2023/08/30 12:16:37;;;;;;;1.80;1.80;;;;;;;;;;6285781;28;20303;-69
2023/08/30 12:19:41;;;;;;;3.42;2.20;;;;;;;;;;6285480;28;20299;-68
2023/08/30 12:22:45;;;;;;;3.28;1.90;;;;;;;;;;6285883;28;20291;-68
2023/08/30 12:25:59;;;;;;;1.80;1.75;;;;;;;;;;6285052;28;20291;-68
2023/08/30 12:29:04;;;;;;;1.70;1.70;;;;;;;;;;6282753;28;20287;-67
2023/08/30 12:32:09;;;;;;;2.10;1.80;;;;;;;;;;6284919;28;20243;-67
2023/08/30 12:35:13;;;;;;;3.53;1.75;;;;;;;;;;6284829;28;20345;-68
2023/08/30 12:38:18;;;;;;;1.90;1.90;;;;;;;;;;6285500;28;20389;-68
2023/08/30 12:41:23;;;;;;;2.67;1.90;;;;;;;;;;6284890;28;20270;-68
2023/08/30 12:44:26;;;;;;;1.95;1.85;;;;;;;;;;6284676;28;20295;-69
2023/08/30 12:47:32;;;;;;;1.55;1.50;;;;;;;;;;6285417;28;20556;-69
2023/08/30 12:50:36;;;;;;;1.90;1.80;;;;;;;;;;6284717;28;20299;-69
2023/08/30 12:53:40;;;;;;;2.05;1.95;;;;;;;;;;6284530;28;20295;-69
2023/08/30 12:56:43;;;;;;;6.63;1.80;;;;;;;;;;6284988;28;20484;-68
2023/08/30 12:59:47;;;;;;;1.80;1.80;;;;;;;;;;6284320;28;20539;-68
2023/08/30 13:02:52;;;;;;;2.33;2.17;;;;;;;;;;6284540;28;20286;-68
2023/08/30 13:05:58;;;;;;;2.30;2.20;;;;;;;;;;6284432;28;20294;-68
2023/08/30 13:09:03;;;;;;;2.28;1.80;;;;;;;;;;6284470;28;20575;-68
2023/08/30 13:12:07;;;;;;;2.05;1.90;;;;;;;;;;6285829;28;20563;-68
2023/08/30 13:15:12;;;;;;;1.95;1.95;;;;;;;;;;6284563;28;20552;-68
2023/08/30 13:18:17;;;;;;;1.85;1.85;;;;;;;;;;6285010;28;20329;-68
2023/08/30 13:21:21;;;;;;;1.50;1.50;;;;;;;;;;6284636;28;20310;-68
2023/08/30 13:24:42;;;;;;;1.60;1.60;;;;;;;;;;6284465;28;20370;-69
2023/08/30 13:27:46;;;;;;;1.77;1.70;;;;;;;;;;6267253;28;20291;-69
2023/08/30 13:30:51;;;;;;;2.20;1.73;;;;;;;;;;6284324;28;20291;-67
2023/08/30 13:33:56;;;;;;;1.70;1.60;;;;;;;;;;6284412;28;20295;-68
2023/08/30 13:37:00;;;;;;;1.98;1.80;;;;;;;;;;6284794;28;20303;-69
2023/08/30 13:40:05;;;;;;;1.50;1.50;;;;;;;;;;6283732;28;20286;-67
2023/08/30 13:43:09;;;;;;;1.58;1.42;;;;;;;;;;6284637;28;20294;-68
2023/08/30 13:46:14;;;;;;;2.28;1.60;;;;;;;;;;6288971;28;20292;-69
2023/08/30 13:49:20;;;;;;;1.55;1.52;;;;;;;;;;6288878;28;20295;-68
2023/08/30 13:52:24;;;;;;;1.40;1.40;;;;;;;;;;6289520;28;20311;-68
2023/08/30 13:55:28;;;;;;;1.70;1.70;;;;;;;;;;6288618;28;20295;-68
2023/08/30 13:58:31;;;;;;;4.60;1.48;;;;;;;;;;6288895;28;20298;-70
2023/08/30 14:01:36;;;;;;;1.50;1.50;;;;;;;;;;6288617;28;20492;-68
2023/08/30 14:04:41;;;;;;;2.17;1.50;;;;;;;;;;6270925;28;20291;-68
2023/08/30 14:07:45;;;;;;;1.35;1.35;;;;;;;;;;6289003;28;20294;-68
2023/08/30 14:10:51;;;;;;;1.52;1.40;;;;;;;;;;6289190;28;20375;-68
2023/08/30 14:13:54;;;;;;;1.20;1.20;;;;;;;;;;6288208;28;20310;-68
2023/08/30 14:16:58;;;;;;;1.10;1.10;;;;;;;;;;6288448;28;20312;-68
2023/08/30 14:20:05;;;;;;;1.50;1.50;;;;;;;;;;6287162;28;20298;-68
2023/08/30 14:23:09;;;;;;;1.42;1.35;;;;;;;;;;6288503;28;20252;-68
2023/08/30 14:26:13;;;;;;;1.10;1.10;;;;;;;;;;6287989;28;20351;-67
2023/08/30 14:29:21;;;;;;;1.73;1.63;;;;;;;;;;6287926;28;20603;-68
2023/08/30 14:32:25;;;;;;;1.60;1.60;;;;;;;;;;6288207;28;20298;-68
2023/08/30 14:35:31;;;;;;;2.00;1.67;;;;;;;;;;6287681;28;20291;-67
2023/08/30 14:38:36;;;;;;;2.38;2.17;;;;;;;;;;6287027;28;20592;-68
2023/08/30 14:41:40;;;;;;;1.85;1.75;;;;;;;;;;6287872;28;20483;-68
2023/08/30 14:44:44;;;;;;;2.00;2.00;;;;;;;;;;6287683;28;20555;-68
2023/08/30 14:47:48;;;;;;;2.38;2.08;;;;;;;;;;6287966;28;20340;-68
2023/08/30 14:50:53;;;;;;;44.08;25.30;;;;;;;;;;6287585;28;20295;-68
2023/08/30 14:53:57;;;;;;;6.45;5.75;;;;;;;;;;6287249;28;20303;-69
2023/08/30 14:57:01;;;;;;;53.88;37.55;;;;;;;;;;6288028;28;20287;-68
2023/08/30 15:00:06;;;;;;;6.85;6.35;;;;;;;;;;6287164;28;20291;-69
2023/08/30 15:03:10;;;;;;;8.18;7.47;;;;;;;;;;6287456;28;20287;-69
2023/08/30 15:06:15;;;;;;;2.50;2.40;;;;;;;;;;6287190;28;20299;-68
2023/08/30 15:09:19;;;;;;;1.50;1.50;;;;;;;;;;6287133;28;20296;-68
2023/08/30 15:12:23;;;;;;;2.17;1.95;;;;;;;;;;6288154;28;20555;-68
2023/08/30 15:15:27;;;;;;;1.52;1.42;;;;;;;;;;6286743;28;20303;-68
2023/08/30 15:18:30;;;;;;;1.77;1.58;;;;;;;;;;6285177;28;20318;-67
2023/08/30 15:21:36;;;;;;;1.77;1.77;;;;;;;;;;6287403;28;20287;-68
2023/08/30 15:24:40;;;;;;;2.10;2.00;;;;;;;;;;6286311;28;20303;-68
2023/08/30 15:27:43;;;;;;;1.65;1.65;;;;;;;;;;6287155;28;20303;-68
2023/08/30 15:30:50;;;;;;;1.48;1.48;;;;;;;;;;6286804;28;20553;-68
2023/08/30 15:33:54;;;;;;;1.60;1.60;;;;;;;;;;6286246;28;20287;-67
2023/08/30 15:36:59;;;;;;;1.65;1.65;;;;;;;;;;6286622;28;20303;-67
2023/08/30 15:40:05;;;;;;;1.70;1.70;;;;;;;;;;6285583;28;20299;-68
2023/08/30 15:43:08;;;;;;;2.10;2.00;;;;;;;;;;6268196;28;20314;-68
2023/08/30 15:46:13;;;;;;;1.80;1.80;;;;;;;;;;6285425;28;20298;-68
2023/08/30 15:49:17;;;;;;;1.90;1.80;;;;;;;;;;6286027;28;20290;-68
2023/08/30 15:52:22;;;;;;;1.50;1.50;;;;;;;;;;6286197;28;20302;-68
2023/08/30 15:55:28;;;;;;;1.60;1.50;;;;;;;;;;6286139;28;20295;-69
2023/08/30 15:58:33;;;;;;;1.40;1.40;;;;;;;;;;6261117;28;20292;-69
2023/08/30 16:01:37;;;;;;;1.60;1.60;;;;;;;;;;6286105;28;20311;-68
2023/08/30 16:04:41;;;;;;;1.90;1.90;;;;;;;;;;6285387;28;20295;-69
2023/08/30 16:07:46;;;;;;;3.78;2.10;;;;;;;;;;6285498;28;20575;-68
2023/08/30 16:10:54;;;;;;;1.90;1.63;;;;;;;;;;6286651;28;20287;-68
2023/08/30 16:13:57;;;;;;;1.80;1.60;;;;;;;;;;6285122;28;20598;-68
2023/08/30 16:17:01;;;;;;;3.15;1.90;;;;;;;;;;6286414;28;20290;-67
2023/08/30 16:20:06;;;;;;;2.38;1.80;;;;;;;;;;6284075;28;20485;-68
2023/08/30 16:23:11;;;;;;;1.70;1.60;;;;;;;;;;6285431;28;20425;-68
2023/08/30 16:26:16;;;;;;;1.98;1.75;;;;;;;;;;6284815;28;20290;-68
2023/08/30 16:29:19;;;;;;;1.67;1.58;;;;;;;;;;6283781;28;20314;-68
2023/08/30 16:32:23;;;;;;;1.67;1.67;;;;;;;;;;6285259;28;20286;-68
2023/08/30 16:35:27;;;;;;;1.98;1.65;;;;;;;;;;6284790;28;20286;-68
2023/08/30 16:38:33;;;;;;;1.50;1.50;;;;;;;;;;6282513;28;20295;-67
2023/08/30 16:41:37;;;;;;;1.80;1.70;;;;;;;;;;6285081;28;20295;-67
2023/08/30 16:44:42;;;;;;;1.80;1.80;;;;;;;;;;6284832;28;20295;-68
2023/08/30 16:47:45;;;;;;;2.78;2.67;;;;;;;;;;6285094;28;20295;-68
2023/08/30 16:51:09;;;;;;;4.65;3.70;;;;;;;;;;6284043;28;20295;-68
2023/08/30 16:54:14;;;;;;;4.03;3.88;;;;;;;;;;6283975;28;20290;-68
2023/08/30 16:57:18;;;;;;;2.22;2.13;;;;;;;;;;6284982;28;20303;-67
2023/08/30 17:00:22;;;;;;;1.60;1.60;;;;;;;;;;6266273;28;20318;-67
2023/08/30 17:03:25;;;;;;;1.33;1.33;;;;;;;;;;6283739;28;20307;-67
2023/08/30 17:06:29;;;;;;;1.80;1.80;;;;;;;;;;6284785;28;20291;-67
2023/08/30 17:09:35;;;;;;;2.67;2.22;;;;;;;;;;6284311;28;20294;-67
2023/08/30 17:12:39;;;;;;;2.58;2.47;;;;;;;;;;6285713;28;20299;-69
2023/08/30 17:15:43;;;;;;;5.85;2.70;;;;;;;;;;6283880;28;20291;-68
2023/08/30 17:18:48;;;;;;;2.38;2.17;;;;;;;;;;6269603;28;20584;-68
2023/08/30 17:21:52;;;;;;;2.80;2.60;;;;;;;;;;6244982;28;20329;-68
2023/08/30 17:24:57;;;;;;;2.40;2.30;;;;;;;;;;6249532;28;20307;-67
2023/08/30 17:28:03;;;;;;;2.10;1.98;;;;;;;;;;6260253;28;20291;-68
2023/08/30 17:31:07;;;;;;;1.85;1.83;;;;;;;;;;6259474;28;20487;-67
2023/08/30 17:34:11;;;;;;;1.70;1.70;;;;;;;;;;6259191;28;20295;-67
2023/08/30 17:37:15;;;;;;;2.38;2.28;;;;;;;;;;6259849;28;20291;-69
2023/08/30 17:40:20;;;;;;;2.00;1.90;;;;;;;;;;6259473;28;20319;-68
2023/08/30 17:43:25;;;;;;;2.00;2.00;;;;;;;;;;6259184;28;20300;-68
2023/08/30 17:46:31;;;;;;;2.17;2.05;;;;;;;;;;6259335;28;20427;-68
2023/08/30 17:49:35;;;;;;;1.95;1.85;;;;;;;;;;6259390;28;20296;-67
2023/08/30 17:52:38;;;;;;;4.72;3.10;;;;;;;;;;6259996;28;20476;-67
2023/08/30 17:55:43;;;;;;;3.53;3.03;;;;;;;;;;6259001;28;20291;-68
2023/08/30 17:58:49;;;;;;;7.93;3.67;;;;;;;;;;6258945;28;20296;-68
2023/08/30 18:01:53;;;;;;;3.95;3.05;;;;;;;;;;6258975;28;20288;-69
2023/08/30 18:04:57;;;;;;;10.80;4.00;;;;;;;;;;6258772;28;20464;-68
2023/08/30 18:08:02;;;;;;;7.70;3.88;;;;;;;;;;6259123;28;20303;-68
2023/08/30 18:11:13;;;;;;;1.90;1.90;;;;;;;;;;6280285;28;20294;-69
2023/08/30 18:14:17;;;;;;;2.30;2.10;;;;;;;;;;6308632;28;20290;-69
2023/08/30 18:17:21;;;;;;;2.65;2.45;;;;;;;;;;6309075;28;20262;-68
2023/08/30 18:20:26;;;;;;;1.63;1.63;;;;;;;;;;6308901;28;20290;-68
2023/08/30 18:23:29;;;;;;;1.42;1.42;;;;;;;;;;6308999;28;20298;-69
2023/08/30 18:26:35;;;;;;;2.80;2.05;;;;;;;;;;6308763;28;20302;-68
2023/08/30 18:29:42;;;;;;;1.92;1.83;;;;;;;;;;6310779;28;20294;-69